createdAt,value
2017-01-07T00:00:08.238Z,74.69
2017-01-07T00:01:08.248Z,74.79
2017-01-07T00:02:08.253Z,74.69
2017-01-07T00:03:08.263Z,74.69
2017-01-07T00:04:08.265Z,74.69
2017-01-07T00:05:08.280Z,74.69
2017-01-07T00:06:08.288Z,74.79
2017-01-07T00:07:08.293Z,74.79
2017-01-07T00:08:08.306Z,74.6
2017-01-07T00:09:08.309Z,74.98
2017-01-07T00:10:08.325Z,74.6
2017-01-07T00:11:08.330Z,74.98
2017-01-07T00:12:08.337Z,74.69
2017-01-07T00:13:08.344Z,74.88
2017-01-07T00:14:08.348Z,74.79
2017-01-07T00:15:08.354Z,75.07
2017-01-07T00:16:08.362Z,74.79
2017-01-07T00:17:08.373Z,74.88
2017-01-07T00:18:08.378Z,74.69
2017-01-07T00:19:08.390Z,74.88
2017-01-07T00:20:08.399Z,75.07
2017-01-07T00:21:08.403Z,75.07
2017-01-07T00:22:08.414Z,75.07
2017-01-07T00:23:08.420Z,74.98
2017-01-07T00:24:08.427Z,75.07
2017-01-07T00:25:08.434Z,74.88
2017-01-07T00:26:08.446Z,74.6
2017-01-07T00:27:08.453Z,74.88
2017-01-07T00:28:08.455Z,74.79
2017-01-07T00:29:08.463Z,74.98
2017-01-07T00:30:08.473Z,74.88
2017-01-07T00:31:08.488Z,74.88
2017-01-07T00:32:08.493Z,74.79
2017-01-07T00:33:08.500Z,74.88
2017-01-07T00:34:08.507Z,74.88
2017-01-07T00:35:08.512Z,74.98
2017-01-07T00:36:08.520Z,74.88
2017-01-07T00:37:08.526Z,75.07
2017-01-07T00:38:08.533Z,74.69
2017-01-07T00:39:08.546Z,74.88
2017-01-07T00:40:08.593Z,74.88
2017-01-07T00:41:08.558Z,75.07
2017-01-07T00:42:08.569Z,75.07
2017-01-07T00:43:08.575Z,74.88
2017-01-07T00:44:08.586Z,74.6
2017-01-07T00:45:08.591Z,75.07
2017-01-07T00:46:08.602Z,75.17
2017-01-07T00:47:08.603Z,74.88
2017-01-07T00:48:08.614Z,74.79
2017-01-07T00:49:08.620Z,74.98
2017-01-07T00:50:08.628Z,74.98
2017-01-07T00:51:08.634Z,74.88
2017-01-07T00:52:08.649Z,74.88
2017-01-07T00:53:08.655Z,74.98
2017-01-07T00:54:08.659Z,75.07
2017-01-07T00:55:08.668Z,74.88
2017-01-07T00:56:08.673Z,74.88
2017-01-07T00:57:08.681Z,75.07
2017-01-07T00:58:08.689Z,75.07
2017-01-07T00:59:08.694Z,75.07
2017-01-07T01:00:08.702Z,75.07
2017-01-07T01:01:08.740Z,75.07
2017-01-07T01:02:08.716Z,74.88
2017-01-07T01:03:08.729Z,75.17
2017-01-07T01:04:09.128Z,74.98
2017-01-07T01:05:08.743Z,75.07
2017-01-07T01:06:08.746Z,74.98
2017-01-07T01:07:08.808Z,74.98
2017-01-07T01:08:08.766Z,74.88
2017-01-07T01:09:08.777Z,74.79
2017-01-07T01:10:08.791Z,74.88
2017-01-07T01:11:08.789Z,74.98
2017-01-07T01:12:08.806Z,74.98
2017-01-07T01:13:08.811Z,74.79
2017-01-07T01:14:08.815Z,74.6
2017-01-07T01:15:08.822Z,75.07
2017-01-07T01:16:08.825Z,75.17
2017-01-07T01:17:08.836Z,75.17
2017-01-07T01:18:08.847Z,74.79
2017-01-07T01:19:08.851Z,74.98
2017-01-07T01:20:08.862Z,74.79
2017-01-07T01:21:08.867Z,74.79
2017-01-07T01:22:08.877Z,74.6
2017-01-07T01:23:08.883Z,74.6
2017-01-07T01:24:08.894Z,74.69
2017-01-07T01:25:08.897Z,74.69
2017-01-07T01:26:08.905Z,75.07
2017-01-07T01:27:08.912Z,75.07
2017-01-07T01:28:08.921Z,75.07
2017-01-07T01:29:08.924Z,74.98
2017-01-07T01:30:08.933Z,74.98
2017-01-07T01:31:08.948Z,75.07
2017-01-07T01:32:08.950Z,75.07
2017-01-07T01:33:08.959Z,74.6
2017-01-07T01:34:08.968Z,74.6
2017-01-07T01:35:08.977Z,74.79
2017-01-07T01:36:08.986Z,74.6
2017-01-07T01:37:09.010Z,74.79
2017-01-07T01:38:08.995Z,74.88
2017-01-07T01:39:09.003Z,74.88
2017-01-07T01:40:09.013Z,74.98
2017-01-07T01:41:09.015Z,75.07
2017-01-07T01:42:09.030Z,75.07
2017-01-07T01:43:09.032Z,75.17
2017-01-07T01:44:09.041Z,74.88
2017-01-07T01:45:09.050Z,74.41
2017-01-07T01:46:09.057Z,74.79
2017-01-07T01:47:09.066Z,74.98
2017-01-07T01:48:09.071Z,74.98
2017-01-07T01:49:09.082Z,75.07
2017-01-07T01:50:09.085Z,75.07
2017-01-07T01:51:09.091Z,74.98
2017-01-07T01:52:09.105Z,75.07
2017-01-07T01:53:09.112Z,74.51
2017-01-07T01:54:09.116Z,74.88
2017-01-07T01:55:09.124Z,75.07
2017-01-07T01:56:09.131Z,74.6
2017-01-07T01:57:09.141Z,74.6
2017-01-07T01:58:09.155Z,74.6
2017-01-07T01:59:09.161Z,74.6
2017-01-07T02:00:09.169Z,74.51
2017-01-07T02:01:09.176Z,74.41
2017-01-07T02:02:09.182Z,74.41
2017-01-07T02:03:09.195Z,74.41
2017-01-07T02:04:09.201Z,74.41
2017-01-07T02:05:09.203Z,74.51
2017-01-07T02:06:09.216Z,74.51
2017-01-07T02:07:09.224Z,74.88
2017-01-07T02:08:09.235Z,74.79
2017-01-07T02:09:09.236Z,74.69
2017-01-07T02:10:09.257Z,74.51
2017-01-07T02:11:09.257Z,74.13
2017-01-07T02:12:09.260Z,74.32
2017-01-07T02:13:09.278Z,74.32
2017-01-07T02:14:09.278Z,74.32
2017-01-07T02:15:09.281Z,74.32
2017-01-07T02:16:09.292Z,74.32
2017-01-07T02:17:09.302Z,74.32
2017-01-07T02:18:09.308Z,74.13
2017-01-07T02:19:09.313Z,74.51
2017-01-07T02:20:09.323Z,74.13
2017-01-07T02:21:09.336Z,74.13
2017-01-07T02:22:09.337Z,74.13
2017-01-07T02:23:09.346Z,74.13
2017-01-07T02:24:09.362Z,74.22
2017-01-07T02:25:09.361Z,74.13
2017-01-07T02:26:09.373Z,74.32
2017-01-07T02:27:09.378Z,74.04
2017-01-07T02:28:09.386Z,74.32
2017-01-07T02:29:09.393Z,74.22
2017-01-07T02:30:09.425Z,74.13
2017-01-07T02:31:09.410Z,74.13
2017-01-07T02:32:09.416Z,74.32
2017-01-07T02:33:09.425Z,74.32
2017-01-07T02:34:09.432Z,74.13
2017-01-07T02:35:09.437Z,74.32
2017-01-07T02:36:09.447Z,74.51
2017-01-07T02:37:09.461Z,73.94
2017-01-07T02:38:09.465Z,74.04
2017-01-07T02:39:09.473Z,74.32
2017-01-07T02:40:09.477Z,74.51
2017-01-07T02:41:09.485Z,74.41
2017-01-07T02:42:09.494Z,74.6
2017-01-07T02:43:09.501Z,74.41
2017-01-07T02:44:09.510Z,74.41
2017-01-07T02:45:09.516Z,74.41
2017-01-07T02:46:09.527Z,74.69
2017-01-07T02:47:09.530Z,74.41
2017-01-07T02:48:09.541Z,74.32
2017-01-07T02:49:09.543Z,74.32
2017-01-07T02:50:09.556Z,74.41
2017-01-07T02:51:09.563Z,74.04
2017-01-07T02:52:09.572Z,74.32
2017-01-07T02:53:09.578Z,74.13
2017-01-07T02:54:09.585Z,74.41
2017-01-07T02:55:09.605Z,74.13
2017-01-07T02:56:09.600Z,74.22
2017-01-07T02:57:09.607Z,74.13
2017-01-07T02:58:09.618Z,74.22
2017-01-07T02:59:09.624Z,74.22
2017-01-07T03:00:09.630Z,74.04
2017-01-07T03:01:09.639Z,74.04
2017-01-07T03:02:09.648Z,74.22
2017-01-07T03:03:09.657Z,74.22
2017-01-07T03:04:09.661Z,74.04
2017-01-07T03:05:09.672Z,74.41
2017-01-07T03:06:09.677Z,74.32
2017-01-07T03:07:09.689Z,74.22
2017-01-07T03:08:09.696Z,74.32
2017-01-07T03:09:09.705Z,74.41
2017-01-07T03:10:09.709Z,74.04
2017-01-07T03:11:09.717Z,74.13
2017-01-07T03:12:09.729Z,74.32
2017-01-07T03:13:09.737Z,74.04
2017-01-07T03:14:09.739Z,74.41
2017-01-07T03:15:09.747Z,74.6
2017-01-07T03:16:09.758Z,74.04
2017-01-07T03:17:09.765Z,74.41
2017-01-07T03:18:09.772Z,74.51
2017-01-07T03:19:09.778Z,74.32
2017-01-07T03:20:09.794Z,74.32
2017-01-07T03:21:09.795Z,74.41
2017-01-07T03:22:09.801Z,74.04
2017-01-07T03:23:09.813Z,74.13
2017-01-07T03:24:09.824Z,74.22
2017-01-07T03:25:09.832Z,74.13
2017-01-07T03:26:09.885Z,74.13
2017-01-07T03:27:09.842Z,74.22
2017-01-07T03:28:09.848Z,74.22
2017-01-07T03:29:09.862Z,74.13
2017-01-07T03:30:09.866Z,74.13
2017-01-07T03:31:09.875Z,74.22
2017-01-07T03:32:09.883Z,74.04
2017-01-07T03:33:09.892Z,74.32
2017-01-07T03:34:09.898Z,74.13
2017-01-07T03:35:09.909Z,74.22
2017-01-07T03:36:09.914Z,74.13
2017-01-07T03:37:09.921Z,74.13
2017-01-07T03:38:09.928Z,74.13
2017-01-07T03:39:09.936Z,74.22
2017-01-07T03:40:09.947Z,74.13
2017-01-07T03:41:09.952Z,74.32
2017-01-07T03:42:09.960Z,74.55
2017-01-07T03:43:09.975Z,74.04
2017-01-07T03:44:09.977Z,74.22
2017-01-07T03:45:09.987Z,74.13
2017-01-07T03:46:09.993Z,73.94
2017-01-07T03:47:10.001Z,74.13
2017-01-07T03:48:10.010Z,74.13
2017-01-07T03:49:10.013Z,74.13
2017-01-07T03:50:10.025Z,74.13
2017-01-07T03:51:10.038Z,74.22
2017-01-07T03:52:10.046Z,74.41
2017-01-07T03:53:10.051Z,74.32
2017-01-07T03:54:10.057Z,74.32
2017-01-07T03:55:10.062Z,74.6
2017-01-07T03:56:10.077Z,74.13
2017-01-07T03:57:10.081Z,74.6
2017-01-07T03:58:10.093Z,74.32
2017-01-07T03:59:10.099Z,74.41
2017-01-07T04:00:10.123Z,74.51
2017-01-07T04:01:10.114Z,74.41
2017-01-07T04:02:10.123Z,74.41
2017-01-07T04:03:10.128Z,74.32
2017-01-07T04:04:10.140Z,74.22
2017-01-07T04:05:10.146Z,74.6
2017-01-07T04:06:10.152Z,74.6
2017-01-07T04:07:10.160Z,74.32
2017-01-07T04:08:10.168Z,74.51
2017-01-07T04:09:10.179Z,74.32
2017-01-07T04:10:10.183Z,74.36
2017-01-07T04:11:10.199Z,74.13
2017-01-07T04:12:10.201Z,74.32
2017-01-07T04:13:10.209Z,74.51
2017-01-07T04:14:10.215Z,74.13
2017-01-07T04:15:10.223Z,74.13
2017-01-07T04:16:10.284Z,74.04
2017-01-07T04:17:10.244Z,74.22
2017-01-07T04:18:10.247Z,74.32
2017-01-07T04:19:10.257Z,73.94
2017-01-07T04:20:10.265Z,74.32
2017-01-07T04:21:10.272Z,74.41
2017-01-07T04:22:10.281Z,74.32
2017-01-07T04:23:10.288Z,74.32
2017-01-07T04:24:10.295Z,74.41
2017-01-07T04:25:10.313Z,74.41
2017-01-07T04:26:10.313Z,74.22
2017-01-07T04:27:10.318Z,74.32
2017-01-07T04:28:10.329Z,74.17
2017-01-07T04:29:10.340Z,74.32
2017-01-07T04:30:10.348Z,74.13
2017-01-07T04:31:10.351Z,74.04
2017-01-07T04:32:10.361Z,74.17
2017-01-07T04:33:10.368Z,74.26
2017-01-07T04:34:10.376Z,74.26
2017-01-07T04:35:10.381Z,74.64
2017-01-07T04:36:10.392Z,74.6
2017-01-07T04:37:10.400Z,74.36
2017-01-07T04:38:10.406Z,74.45
2017-01-07T04:39:10.413Z,74.55
2017-01-07T04:40:10.422Z,74.45
2017-01-07T04:41:10.431Z,74.64
2017-01-07T04:42:10.439Z,74.45
2017-01-07T04:43:10.451Z,74.6
2017-01-07T04:44:10.457Z,74.36
2017-01-07T04:45:10.466Z,74.41
2017-01-07T04:46:10.470Z,74.41
2017-01-07T04:47:10.481Z,74.64
2017-01-07T04:48:10.488Z,74.32
2017-01-07T04:49:10.494Z,74.45
2017-01-07T04:50:10.502Z,74.64
2017-01-07T04:51:10.514Z,74.64
2017-01-07T04:52:10.523Z,74.04
2017-01-07T04:53:10.534Z,74.36
2017-01-07T04:54:10.934Z,74.32
2017-01-07T04:55:10.542Z,74.55
2017-01-07T04:56:10.553Z,74.36
2017-01-07T04:57:10.559Z,74.45
2017-01-07T04:58:10.567Z,74.55
2017-01-07T04:59:10.575Z,74.45
2017-01-07T05:00:10.582Z,74.36
2017-01-07T05:01:10.591Z,74.26
2017-01-07T05:02:10.600Z,74.07
2017-01-07T05:03:10.608Z,73.98
2017-01-07T05:04:10.618Z,74.45
2017-01-07T05:05:10.625Z,74.36
2017-01-07T05:06:10.634Z,74.45
2017-01-07T05:07:10.639Z,74.55
2017-01-07T05:08:10.651Z,74.36
2017-01-07T05:09:10.655Z,74.17
2017-01-07T05:10:10.664Z,74.36
2017-01-07T05:11:10.672Z,74.26
2017-01-07T05:12:10.680Z,74.17
2017-01-07T05:13:10.688Z,74.36
2017-01-07T05:14:10.696Z,74.26
2017-01-07T05:15:10.706Z,74.64
2017-01-07T05:16:10.713Z,74.36
2017-01-07T05:17:10.720Z,74.36
2017-01-07T05:18:10.724Z,74.45
2017-01-07T05:19:10.737Z,74.45
2017-01-07T05:20:10.748Z,74.26
2017-01-07T05:21:10.753Z,74.07
2017-01-07T05:22:10.757Z,74.36
2017-01-07T05:23:10.771Z,74.36
2017-01-07T05:24:10.778Z,74.17
2017-01-07T05:25:10.784Z,73.79
2017-01-07T05:26:10.796Z,74.26
2017-01-07T05:27:10.802Z,74.07
2017-01-07T05:28:10.808Z,74.26
2017-01-07T05:29:10.820Z,74.07
2017-01-07T05:30:10.827Z,74.26
2017-01-07T05:31:10.833Z,74.26
2017-01-07T05:32:10.843Z,74.36
2017-01-07T05:33:10.849Z,74.36
2017-01-07T05:34:10.856Z,74.17
2017-01-07T05:35:10.868Z,74.07
2017-01-07T05:36:10.877Z,74.26
2017-01-07T05:37:10.878Z,74.26
2017-01-07T05:38:10.890Z,74.26
2017-01-07T05:39:10.896Z,73.88
2017-01-07T05:40:10.900Z,74.07
2017-01-07T05:41:10.918Z,74.36
2017-01-07T05:42:10.925Z,74.36
2017-01-07T05:43:10.928Z,74.36
2017-01-07T05:44:10.933Z,74.07
2017-01-07T05:45:10.943Z,74.36
2017-01-07T05:46:10.954Z,74.36
2017-01-07T05:47:10.959Z,74.26
2017-01-07T05:48:10.966Z,74.26
2017-01-07T05:49:10.973Z,74.36
2017-01-07T05:50:10.983Z,73.98
2017-01-07T05:51:10.990Z,74.36
2017-01-07T05:52:10.998Z,74.26
2017-01-07T05:53:11.005Z,74.36
2017-01-07T05:54:11.018Z,74.55
2017-01-07T05:55:11.034Z,74.45
2017-01-07T05:56:11.030Z,74.64
2017-01-07T05:57:11.041Z,74.36
2017-01-07T05:58:11.050Z,74.36
2017-01-07T05:59:11.054Z,74.64
2017-01-07T06:00:11.061Z,74.36
2017-01-07T06:01:11.075Z,74.17
2017-01-07T06:02:11.081Z,74.36
2017-01-07T06:03:11.089Z,74.26
2017-01-07T06:04:11.097Z,74.36
2017-01-07T06:05:11.104Z,73.98
2017-01-07T06:06:11.112Z,73.41
2017-01-07T06:07:11.121Z,74.17
2017-01-07T06:08:11.131Z,74.36
2017-01-07T06:09:11.134Z,74.64
2017-01-07T06:10:11.142Z,74.45
2017-01-07T06:11:11.154Z,74.45
2017-01-07T06:12:11.165Z,74.45
2017-01-07T06:13:11.168Z,74.36
2017-01-07T06:14:11.177Z,74.36
2017-01-07T06:15:11.185Z,74.07
2017-01-07T06:16:11.195Z,74.45
2017-01-07T06:17:11.201Z,74.36
2017-01-07T06:18:11.210Z,74.55
2017-01-07T06:19:11.219Z,74.55
2017-01-07T06:20:11.227Z,74.45
2017-01-07T06:21:11.235Z,74.36
2017-01-07T06:22:11.242Z,74.45
2017-01-07T06:23:11.253Z,74.45
2017-01-07T06:24:11.258Z,74.26
2017-01-07T06:25:11.270Z,74.26
2017-01-07T06:26:11.672Z,74.26
2017-01-07T06:27:11.282Z,74.07
2017-01-07T06:28:11.291Z,74.45
2017-01-07T06:29:11.299Z,74.26
2017-01-07T06:30:11.305Z,74.36
2017-01-07T06:31:11.315Z,74.64
2017-01-07T06:32:11.325Z,74.36
2017-01-07T06:33:11.329Z,74.36
2017-01-07T06:34:11.339Z,74.45
2017-01-07T06:35:11.347Z,74.17
2017-01-07T06:36:11.355Z,74.64
2017-01-07T06:37:11.363Z,74.36
2017-01-07T06:38:11.372Z,74.36
2017-01-07T06:39:11.375Z,74.55
2017-01-07T06:40:11.387Z,74.36
2017-01-07T06:41:11.398Z,74.64
2017-01-07T06:42:11.406Z,74.55
2017-01-07T06:43:11.409Z,74.55
2017-01-07T06:44:11.417Z,74.36
2017-01-07T06:45:11.426Z,74.07
2017-01-07T06:46:11.434Z,74.64
2017-01-07T06:47:11.442Z,74.45
2017-01-07T06:48:11.450Z,74.36
2017-01-07T06:49:11.463Z,74.36
2017-01-07T06:50:11.464Z,74.36
2017-01-07T06:51:11.474Z,74.17
2017-01-07T06:52:11.482Z,74.36
2017-01-07T06:53:11.492Z,74.26
2017-01-07T06:54:11.500Z,74.07
2017-01-07T06:55:11.507Z,74.26
2017-01-07T06:56:11.516Z,74.55
2017-01-07T06:57:11.522Z,74.55
2017-01-07T06:58:11.539Z,74.45
2017-01-07T06:59:11.543Z,74.45
2017-01-07T07:00:11.549Z,74.55
2017-01-07T07:01:11.563Z,74.36
2017-01-07T07:02:11.562Z,74.36
2017-01-07T07:03:11.575Z,74.26
2017-01-07T07:04:11.577Z,74.26
2017-01-07T07:05:11.591Z,74.36
2017-01-07T07:06:11.596Z,74.17
2017-01-07T07:07:11.607Z,74.17
2017-01-07T07:08:11.613Z,74.17
2017-01-07T07:09:11.624Z,74.17
2017-01-07T07:10:11.633Z,74.17
2017-01-07T07:11:11.636Z,74.36
2017-01-07T07:12:11.646Z,74.45
2017-01-07T07:13:11.652Z,74.26
2017-01-07T07:14:11.663Z,74.36
2017-01-07T07:15:11.669Z,74.55
2017-01-07T07:16:11.681Z,74.45
2017-01-07T07:17:11.689Z,74.17
2017-01-07T07:18:11.699Z,74.36
2017-01-07T07:19:11.702Z,74.36
2017-01-07T07:20:11.711Z,74.26
2017-01-07T07:21:11.720Z,73.69
2017-01-07T07:22:11.729Z,74.07
2017-01-07T07:23:11.740Z,74.07
2017-01-07T07:24:11.745Z,74.36
2017-01-07T07:25:11.755Z,74.36
2017-01-07T07:26:11.760Z,74.36
2017-01-07T07:27:11.770Z,74.55
2017-01-07T07:28:11.775Z,74.17
2017-01-07T07:29:11.786Z,74.26
2017-01-07T07:30:11.791Z,74.64
2017-01-07T07:31:11.801Z,74.45
2017-01-07T07:32:11.805Z,74.45
2017-01-07T07:33:11.817Z,74.45
2017-01-07T07:34:11.824Z,74.45
2017-01-07T07:35:11.830Z,74.64
2017-01-07T07:36:11.848Z,74.26
2017-01-07T07:37:11.850Z,74.64
2017-01-07T07:38:11.860Z,74.26
2017-01-07T07:39:11.870Z,74.26
2017-01-07T07:40:11.874Z,74.07
2017-01-07T07:41:11.881Z,74.26
2017-01-07T07:42:11.888Z,73.6
2017-01-07T07:43:11.900Z,73.79
2017-01-07T07:44:11.909Z,73.69
2017-01-07T07:45:11.912Z,74.26
2017-01-07T07:46:11.923Z,74.36
2017-01-07T07:47:11.931Z,74.26
2017-01-07T07:48:11.942Z,74.17
2017-01-07T07:49:11.945Z,74.26
2017-01-07T07:50:11.958Z,74.07
2017-01-07T07:51:11.963Z,74.36
2017-01-07T07:52:11.975Z,74.07
2017-01-07T07:53:11.980Z,74.07
2017-01-07T07:54:11.988Z,74.26
2017-01-07T07:55:11.995Z,74.36
2017-01-07T07:56:12.010Z,74.07
2017-01-07T07:57:12.012Z,74.07
2017-01-07T07:58:12.024Z,74.07
2017-01-07T07:59:12.029Z,74.26
2017-01-07T08:00:12.040Z,74.55
2017-01-07T08:01:12.045Z,74.36
2017-01-07T08:02:12.057Z,74.17
2017-01-07T08:03:12.059Z,74.36
2017-01-07T08:04:12.071Z,74.45
2017-01-07T08:05:12.078Z,74.07
2017-01-07T08:06:12.089Z,74.17
2017-01-07T08:07:12.094Z,74.55
2017-01-07T08:08:12.107Z,74.07
2017-01-07T08:09:12.113Z,74.26
2017-01-07T08:10:12.136Z,74.26
2017-01-07T08:11:12.127Z,74.07
2017-01-07T08:12:12.139Z,74.36
2017-01-07T08:13:12.142Z,73.69
2017-01-07T08:14:12.152Z,73.69
2017-01-07T08:15:12.163Z,73.69
2017-01-07T08:16:12.287Z,73.88
2017-01-07T08:17:12.235Z,73.88
2017-01-07T08:18:12.190Z,73.98
2017-01-07T08:19:12.191Z,73.69
2017-01-07T08:20:12.205Z,73.79
2017-01-07T08:21:12.210Z,73.79
2017-01-07T08:22:12.218Z,74.26
2017-01-07T08:23:12.228Z,73.79
2017-01-07T08:24:12.236Z,73.69
2017-01-07T08:25:12.245Z,73.88
2017-01-07T08:26:12.251Z,73.79
2017-01-07T08:27:12.258Z,74.07
2017-01-07T08:28:12.267Z,74.26
2017-01-07T08:29:12.275Z,73.79
2017-01-07T08:30:12.282Z,73.69
2017-01-07T08:31:12.298Z,73.79
2017-01-07T08:32:12.303Z,73.88
2017-01-07T08:33:12.311Z,73.88
2017-01-07T08:34:12.320Z,74.26
2017-01-07T08:35:12.335Z,74.17
2017-01-07T08:36:12.331Z,73.98
2017-01-07T08:38:12.353Z,73.88
2017-01-07T08:39:12.359Z,73.69
2017-01-07T08:40:12.367Z,73.79
2017-01-07T08:41:12.376Z,73.69
2017-01-07T08:42:12.386Z,73.5
2017-01-07T08:43:12.389Z,73.69
2017-01-07T08:44:12.400Z,74.07
2017-01-07T08:45:12.409Z,74.26
2017-01-07T08:46:12.417Z,73.88
2017-01-07T08:47:12.424Z,73.6
2017-01-07T08:48:12.432Z,73.69
2017-01-07T08:49:12.442Z,73.69
2017-01-07T08:50:12.450Z,73.69
2017-01-07T08:51:12.460Z,73.69
2017-01-07T08:52:12.466Z,73.69
2017-01-07T08:53:12.477Z,73.69
2017-01-07T08:54:12.483Z,73.5
2017-01-07T08:55:12.490Z,73.6
2017-01-07T08:56:12.498Z,74.02
2017-01-07T08:57:12.507Z,73.69
2017-01-07T08:58:12.717Z,73.69
2017-01-07T08:59:12.522Z,73.73
2017-01-07T09:00:12.535Z,73.73
2017-01-07T09:01:12.537Z,73.64
2017-01-07T09:02:12.549Z,73.73
2017-01-07T09:03:12.559Z,73.73
2017-01-07T09:04:12.564Z,74.02
2017-01-07T09:05:12.568Z,73.92
2017-01-07T09:06:12.580Z,73.73
2017-01-07T09:07:12.589Z,73.83
2017-01-07T09:08:12.600Z,73.64
2017-01-07T09:09:13.001Z,73.73
2017-01-07T09:10:12.617Z,73.73
2017-01-07T09:11:12.619Z,73.64
2017-01-07T09:12:12.631Z,73.64
2017-01-07T09:13:12.640Z,73.45
2017-01-07T09:14:12.650Z,73.35
2017-01-07T09:15:12.654Z,73.26
2017-01-07T09:16:12.669Z,73.07
2017-01-07T09:17:12.686Z,73.26
2017-01-07T09:18:12.679Z,73.16
2017-01-07T09:19:12.688Z,73.16
2017-01-07T09:20:12.694Z,73.16
2017-01-07T09:21:12.706Z,73.45
2017-01-07T09:22:12.750Z,73.16
2017-01-07T09:23:12.718Z,73.26
2017-01-07T09:24:12.728Z,73.92
2017-01-07T09:25:12.737Z,73.54
2017-01-07T09:26:12.746Z,73.45
2017-01-07T09:27:12.754Z,73.35
2017-01-07T09:28:12.763Z,73.45
2017-01-07T09:29:12.774Z,73.45
2017-01-07T09:30:12.811Z,73.64
2017-01-07T09:31:12.790Z,73.45
2017-01-07T09:32:13.191Z,73.64
2017-01-07T09:33:12.809Z,73.45
2017-01-07T09:34:12.836Z,73.26
2017-01-07T09:35:12.820Z,72.88
2017-01-07T09:36:12.832Z,72.69
2017-01-07T09:37:12.840Z,72.78
2017-01-07T09:38:12.851Z,73.35
2017-01-07T09:39:12.856Z,72.97
2017-01-07T09:40:12.863Z,73.07
2017-01-07T09:41:12.875Z,72.88
2017-01-07T09:42:12.883Z,73.16
2017-01-07T09:43:12.893Z,72.88
2017-01-07T09:44:12.902Z,73.07
2017-01-07T09:45:12.906Z,73.07
2017-01-07T09:46:12.918Z,73.26
2017-01-07T09:47:12.925Z,73.35
2017-01-07T09:48:12.930Z,72.78
2017-01-07T09:49:12.941Z,73.16
2017-01-07T09:50:12.952Z,73.07
2017-01-07T09:51:12.959Z,72.88
2017-01-07T09:52:13.176Z,72.78
2017-01-07T09:53:12.974Z,73.26
2017-01-07T09:54:12.990Z,73.26
2017-01-07T09:55:12.999Z,72.97
2017-01-07T09:56:12.999Z,72.6
2017-01-07T09:57:13.007Z,73.26
2017-01-07T09:58:13.021Z,72.69
2017-01-07T09:59:13.025Z,72.69
2017-01-07T10:00:13.039Z,72.41
2017-01-07T10:01:13.046Z,72.31
2017-01-07T10:02:13.056Z,72.88
2017-01-07T10:03:13.060Z,72.69
2017-01-07T10:04:13.070Z,73.07
2017-01-07T10:05:13.080Z,72.6
2017-01-07T10:06:13.089Z,72.22
2017-01-07T10:07:13.095Z,73.07
2017-01-07T10:08:13.106Z,72.41
2017-01-07T10:09:13.119Z,72.41
2017-01-07T10:10:13.121Z,72.78
2017-01-07T10:11:13.134Z,72.78
2017-01-07T10:12:13.145Z,72.5
2017-01-07T10:13:13.151Z,73.26
2017-01-07T10:14:13.160Z,72.88
2017-01-07T10:15:13.169Z,72.78
2017-01-07T10:16:13.180Z,72.22
2017-01-07T10:17:13.189Z,72.22
2017-01-07T10:18:13.192Z,72.69
2017-01-07T10:19:13.199Z,72.69
2017-01-07T10:20:13.211Z,72.69
2017-01-07T10:21:13.217Z,72.78
2017-01-07T10:22:13.231Z,72.97
2017-01-07T10:23:13.239Z,72.22
2017-01-07T10:24:13.249Z,72.41
2017-01-07T10:25:13.256Z,72.5
2017-01-07T10:26:13.272Z,72.69
2017-01-07T10:27:13.272Z,72.5
2017-01-07T10:28:13.282Z,72.22
2017-01-07T10:29:13.291Z,72.41
2017-01-07T10:30:13.299Z,72.6
2017-01-07T10:31:13.317Z,72.69
2017-01-07T10:32:13.313Z,72.12
2017-01-07T10:33:13.324Z,72.69
2017-01-07T10:34:13.339Z,72.22
2017-01-07T10:35:13.345Z,71.93
2017-01-07T10:36:13.352Z,72.03
2017-01-07T10:37:13.362Z,72.31
2017-01-07T10:38:13.371Z,72.12
2017-01-07T10:39:13.380Z,72.31
2017-01-07T10:40:13.389Z,72.22
2017-01-07T10:41:13.399Z,72.22
2017-01-07T10:42:13.409Z,72.03
2017-01-07T10:43:13.414Z,71.93
2017-01-07T10:44:13.422Z,71.93
2017-01-07T10:45:13.433Z,71.65
2017-01-07T10:46:13.442Z,71.84
2017-01-07T10:47:13.449Z,71.93
2017-01-07T10:48:13.463Z,71.65
2017-01-07T10:49:13.469Z,71.93
2017-01-07T10:50:13.478Z,71.65
2017-01-07T10:51:13.486Z,72.03
2017-01-07T10:52:13.494Z,71.74
2017-01-07T10:53:13.506Z,71.55
2017-01-07T10:54:13.513Z,71.46
2017-01-07T10:55:13.522Z,71.55
2017-01-07T10:56:13.532Z,71.46
2017-01-07T10:57:13.542Z,71.36
2017-01-07T10:58:13.558Z,71.55
2017-01-07T10:59:13.557Z,71.36
2017-01-07T11:00:13.567Z,71.36
2017-01-07T11:01:13.595Z,71.36
2017-01-07T11:02:13.584Z,71.55
2017-01-07T11:03:13.626Z,71.5
2017-01-07T11:04:13.641Z,71.4
2017-01-07T11:05:13.613Z,71.5
2017-01-07T11:06:13.626Z,71.4
2017-01-07T11:07:13.633Z,71.4
2017-01-07T11:08:13.642Z,71.4
2017-01-07T11:09:13.648Z,71.4
2017-01-07T11:10:13.662Z,71.4
2017-01-07T11:11:13.667Z,71.5
2017-01-07T11:12:13.679Z,71.4
2017-01-07T11:13:13.685Z,71.21
2017-01-07T11:14:13.695Z,70.93
2017-01-07T11:15:13.707Z,71.21
2017-01-07T11:16:13.715Z,71.5
2017-01-07T11:17:13.726Z,71.21
2017-01-07T11:18:13.732Z,71.21
2017-01-07T11:19:13.742Z,70.93
2017-01-07T11:20:13.753Z,71.12
2017-01-07T11:21:13.756Z,71.21
2017-01-07T11:22:13.767Z,70.83
2017-01-07T11:23:13.778Z,70.83
2017-01-07T11:24:13.783Z,70.93
2017-01-07T11:25:13.943Z,71.12
2017-01-07T11:26:13.804Z,71.31
2017-01-07T11:27:13.813Z,70.93
2017-01-07T11:28:13.824Z,70.93
2017-01-07T11:29:13.832Z,71.02
2017-01-07T11:30:13.839Z,71.12
2017-01-07T11:31:13.853Z,71.21
2017-01-07T11:32:13.858Z,70.45
2017-01-07T11:33:13.867Z,70.55
2017-01-07T11:34:13.879Z,70.83
2017-01-07T11:35:13.895Z,70.36
2017-01-07T11:36:13.896Z,70.07
2017-01-07T11:37:13.912Z,70.26
2017-01-07T11:38:13.914Z,70.45
2017-01-07T11:39:13.924Z,70.55
2017-01-07T11:40:13.939Z,70.64
2017-01-07T11:41:13.941Z,70.45
2017-01-07T11:42:13.954Z,70.36
2017-01-07T11:43:13.959Z,70.07
2017-01-07T11:44:13.972Z,69.89
2017-01-07T11:45:13.985Z,69.7
2017-01-07T11:46:13.988Z,70.17
2017-01-07T11:47:13.997Z,69.98
2017-01-07T11:48:14.010Z,69.98
2017-01-07T11:49:14.016Z,69.89
2017-01-07T11:50:14.026Z,69.79
2017-01-07T11:51:14.033Z,69.6
2017-01-07T11:52:14.047Z,69.79
2017-01-07T11:53:14.054Z,69.7
2017-01-07T11:54:14.063Z,69.6
2017-01-07T11:55:14.074Z,70.07
2017-01-07T11:56:14.079Z,69.51
2017-01-07T11:57:14.089Z,69.22
2017-01-07T11:58:14.103Z,69.13
2017-01-07T11:59:14.113Z,68.84
2017-01-07T12:00:14.118Z,69.22
2017-01-07T12:01:14.128Z,69.03
2017-01-07T12:02:14.138Z,69.22
2017-01-07T12:03:14.148Z,69.89
2017-01-07T12:04:14.166Z,69.79
2017-01-07T12:05:14.166Z,69.7
2017-01-07T12:06:14.180Z,69.89
2017-01-07T12:07:14.185Z,69.98
2017-01-07T12:08:14.192Z,70.26
2017-01-07T12:09:14.204Z,69.7
2017-01-07T12:10:14.213Z,69.89
2017-01-07T12:11:14.219Z,69.89
2017-01-07T12:12:14.227Z,70.07
2017-01-07T12:13:14.243Z,69.98
2017-01-07T12:14:14.252Z,69.03
2017-01-07T12:15:14.259Z,69.22
2017-01-07T12:16:14.268Z,69.32
2017-01-07T12:17:14.278Z,69.51
2017-01-07T12:18:14.289Z,69.13
2017-01-07T12:19:14.296Z,69.22
2017-01-07T12:20:14.304Z,69.03
2017-01-07T12:21:14.315Z,69.03
2017-01-07T12:22:14.323Z,69.13
2017-01-07T12:23:14.334Z,68.94
2017-01-07T12:24:14.341Z,69.13
2017-01-07T12:25:14.353Z,69.13
2017-01-07T12:26:14.360Z,69.03
2017-01-07T12:27:14.376Z,68.94
2017-01-07T12:28:14.378Z,68.94
2017-01-07T12:29:14.391Z,68.65
2017-01-07T12:30:14.396Z,68.75
2017-01-07T12:31:14.406Z,68.75
2017-01-07T12:32:14.419Z,69.22
2017-01-07T12:33:14.428Z,69.13
2017-01-07T12:34:14.439Z,68.84
2017-01-07T12:35:14.445Z,68.84
2017-01-07T12:36:14.453Z,68.94
2017-01-07T12:37:14.463Z,68.27
2017-01-07T12:38:14.468Z,68.18
2017-01-07T12:39:14.481Z,68.27
2017-01-07T12:40:14.489Z,67.9
2017-01-07T12:41:14.499Z,68.27
2017-01-07T12:42:14.505Z,68.84
2017-01-07T12:43:14.524Z,68.75
2017-01-07T12:44:14.525Z,68.65
2017-01-07T12:45:14.537Z,68.75
2017-01-07T12:46:14.543Z,68.75
2017-01-07T12:47:14.555Z,68.84
2017-01-07T12:48:14.564Z,68.65
2017-01-07T12:49:14.569Z,68.65
2017-01-07T12:50:14.581Z,68.65
2017-01-07T12:51:14.591Z,68.84
2017-01-07T12:52:14.598Z,68.46
2017-01-07T12:53:14.607Z,69.03
2017-01-07T12:54:14.620Z,68.84
2017-01-07T12:55:14.628Z,68.18